Time;durP1;ratioP1;P1;durP2;ratioP2;P2;SDS_P1;SDS_P2;PMS_P1;PMS_P2;Temp;Humidity;BMP_temperature;BMP_pressure;BME280_temperature;BME280_humidity;BME280_pressure;Samples;Min_cycle;Max_cycle;Signal;HPM_P1;HPM_P2
2021/08/20 00:02:19;;;;;;;27.02;11.43;;;;;;;;;;5071386;28;20059;-67
2021/08/20 00:05:23;;;;;;;28.58;11.88;;;;;;;;;;5071009;28;20051;-67
2021/08/20 00:08:28;;;;;;;29.20;11.32;;;;;;;;;;5071218;28;20039;-67
2021/08/20 00:11:32;;;;;;;23.15;11.10;;;;;;;;;;5071046;28;20043;-67
2021/08/20 00:14:37;;;;;;;26.20;11.88;;;;;;;;;;5079187;28;20416;-67
2021/08/20 00:17:42;;;;;;;26.80;11.55;;;;;;;;;;5090999;28;20050;-67
2021/08/20 00:20:46;;;;;;;27.15;11.82;;;;;;;;;;5091008;28;20051;-67
2021/08/20 00:23:50;;;;;;;32.40;11.27;;;;;;;;;;5091066;28;20443;-67
2021/08/20 00:26:55;;;;;;;31.83;11.95;;;;;;;;;;5091163;28;20133;-67
2021/08/20 00:29:59;;;;;;;23.42;12.05;;;;;;;;;;5091501;28;20047;-67
2021/08/20 00:33:03;;;;;;;26.38;11.05;;;;;;;;;;5091004;28;20389;-67
2021/08/20 00:36:08;;;;;;;26.85;10.88;;;;;;;;;;5090175;28;20533;-67
2021/08/20 00:39:13;;;;;;;25.23;11.18;;;;;;;;;;5090028;28;20047;-67
2021/08/20 00:42:17;;;;;;;21.98;11.30;;;;;;;;;;5090254;28;20043;-67
2021/08/20 00:45:21;;;;;;;29.85;11.98;;;;;;;;;;5090144;28;20529;-67
2021/08/20 00:48:25;;;;;;;24.98;12.05;;;;;;;;;;5089961;28;20043;-67
2021/08/20 00:51:33;;;;;;;27.98;10.88;;;;;;;;;;5090053;28;20047;-67
2021/08/20 00:54:37;;;;;;;23.75;11.00;;;;;;;;;;5090708;28;20043;-67
2021/08/20 00:57:47;;;;;;;23.67;10.98;;;;;;;;;;5089953;28;20051;-67
2021/08/20 01:00:56;;;;;;;20.23;10.93;;;;;;;;;;5090624;28;20039;-67
2021/08/20 01:04:00;;;;;;;28.92;12.45;;;;;;;;;;5090012;28;20055;-67
2021/08/20 01:07:04;;;;;;;29.90;12.57;;;;;;;;;;5090626;28;20055;-67
2021/08/20 01:10:10;;;;;;;26.83;12.77;;;;;;;;;;5090890;28;20055;-67
2021/08/20 01:13:14;;;;;;;22.23;11.70;;;;;;;;;;5090861;28;20043;-67
2021/08/20 01:16:18;;;;;;;24.48;11.85;;;;;;;;;;5089630;28;20059;-67
2021/08/20 01:19:24;;;;;;;22.73;11.70;;;;;;;;;;5089873;28;20407;-67
2021/08/20 01:22:28;;;;;;;19.77;11.57;;;;;;;;;;5090114;28;20055;-67
2021/08/20 01:25:34;;;;;;;31.27;11.85;;;;;;;;;;5089693;28;20424;-67
2021/08/20 01:28:38;;;;;;;23.65;11.48;;;;;;;;;;5089556;28;20040;-67
2021/08/20 01:31:44;;;;;;;23.55;11.85;;;;;;;;;;5089625;28;20043;-67
2021/08/20 01:34:48;;;;;;;30.48;11.52;;;;;;;;;;5090535;28;20039;-67
2021/08/20 01:37:53;;;;;;;26.85;11.40;;;;;;;;;;5089880;28;20043;-67
2021/08/20 01:40:58;;;;;;;27.98;12.52;;;;;;;;;;5089481;28;20040;-67
2021/08/20 01:44:02;;;;;;;30.25;12.07;;;;;;;;;;5090141;28;20118;-67
2021/08/20 01:47:10;;;;;;;27.00;12.10;;;;;;;;;;5092711;28;20047;-67
2021/08/20 01:50:14;;;;;;;25.63;11.93;;;;;;;;;;5094041;28;20039;-67
2021/08/20 01:53:20;;;;;;;25.40;11.57;;;;;;;;;;5093118;28;20043;-67
2021/08/20 01:56:26;;;;;;;21.83;10.73;;;;;;;;;;5092906;28;20051;-67
2021/08/20 01:59:30;;;;;;;20.40;11.23;;;;;;;;;;5093046;28;20399;-67
2021/08/20 02:02:34;;;;;;;18.95;9.55;;;;;;;;;;5093254;28;20487;-67
2021/08/20 02:05:40;;;;;;;21.73;9.40;;;;;;;;;;5092838;28;20106;-67
2021/08/20 02:08:45;;;;;;;19.05;9.50;;;;;;;;;;5081328;28;20032;-67
2021/08/20 02:11:50;;;;;;;18.42;7.82;;;;;;;;;;5092578;28;20055;-67
2021/08/20 02:14:56;;;;;;;19.83;8.05;;;;;;;;;;5092647;28;20051;-67
2021/08/20 02:18:02;;;;;;;18.77;7.80;;;;;;;;;;5092927;28;20053;-67
2021/08/20 02:21:06;;;;;;;13.52;7.55;;;;;;;;;;5093433;28;20040;-67
2021/08/20 02:24:11;;;;;;;13.68;7.57;;;;;;;;;;5092614;28;20146;-67
2021/08/20 02:27:16;;;;;;;20.27;7.32;;;;;;;;;;5092266;28;20044;-67
2021/08/20 02:30:22;;;;;;;15.45;7.05;;;;;;;;;;5092656;28;20040;-67
2021/08/20 02:33:29;;;;;;;17.45;7.50;;;;;;;;;;5092227;28;20040;-67
2021/08/20 02:36:36;;;;;;;16.45;7.13;;;;;;;;;;5092173;28;20114;-67
2021/08/20 02:39:40;;;;;;;19.10;8.02;;;;;;;;;;5092488;28;20035;-67
2021/08/20 02:42:44;;;;;;;14.95;8.13;;;;;;;;;;5092400;28;20035;-67
2021/08/20 02:45:48;;;;;;;20.38;8.77;;;;;;;;;;5092014;28;20053;-67
2021/08/20 02:48:52;;;;;;;18.27;9.40;;;;;;;;;;5091905;28;20036;-67
2021/08/20 02:51:57;;;;;;;14.57;8.70;;;;;;;;;;5092284;28;20043;-67
2021/08/20 02:55:07;;;;;;;19.90;8.50;;;;;;;;;;5092129;28;20515;-67
2021/08/20 02:58:17;;;;;;;14.18;6.72;;;;;;;;;;5091214;28;20051;-67
2021/08/20 03:01:31;;;;;;;12.07;6.05;;;;;;;;;;5091773;28;20463;-67
2021/08/20 03:04:41;;;;;;;13.68;5.65;;;;;;;;;;5091900;28;20048;-67
2021/08/20 03:07:53;;;;;;;11.05;5.38;;;;;;;;;;5092400;28;20040;-67
2021/08/20 03:11:01;;;;;;;11.55;5.10;;;;;;;;;;5091714;28;20507;-67
2021/08/20 03:14:07;;;;;;;10.85;5.38;;;;;;;;;;5091530;28;20496;-67
2021/08/20 03:17:15;;;;;;;11.68;5.05;;;;;;;;;;5079582;28;20040;-67
2021/08/20 03:20:19;;;;;;;18.08;5.35;;;;;;;;;;5091814;28;20036;-67
2021/08/20 03:22:58;;;;;;;11.32;5.97;;;;;;;;;;5068355;28;20391;-66
2021/08/20 03:25:36;;;;;;;12.77;5.30;;;;;;;;;;5068361;28;20390;-67
2021/08/20 03:28:17;;;;;;;7.75;4.78;;;;;;;;;;5108790;27;20393;-67
2021/08/20 03:31:04;;;;;;;12.68;5.65;;;;;;;;;;5068174;28;20387;-67
2021/08/20 03:33:45;;;;;;;12.43;5.68;;;;;;;;;;5068495;28;20906;-67
2021/08/20 03:36:28;;;;;;;12.73;5.30;;;;;;;;;;5068173;28;20382;-67
2021/08/20 03:39:13;;;;;;;13.50;6.20;;;;;;;;;;5068157;28;20381;-67
2021/08/20 03:41:51;;;;;;;13.82;5.72;;;;;;;;;;5068330;28;20405;-67
2021/08/20 03:44:31;;;;;;;16.15;6.30;;;;;;;;;;5068276;28;20383;-67
2021/08/20 03:47:09;;;;;;;10.98;6.20;;;;;;;;;;5068250;28;20394;-67
2021/08/20 03:49:47;;;;;;;13.13;5.65;;;;;;;;;;5068118;28;20383;-66
2021/08/20 03:52:25;;;;;;;9.38;5.22;;;;;;;;;;5068313;28;20386;-67
2021/08/20 03:55:04;;;;;;;7.57;5.30;;;;;;;;;;5068396;28;20382;-67
2021/08/20 03:57:49;;;;;;;17.67;5.20;;;;;;;;;;5068224;28;20398;-67
2021/08/20 04:00:26;;;;;;;17.08;4.88;;;;;;;;;;5068170;28;20925;-67
2021/08/20 04:03:11;;;;;;;7.38;4.75;;;;;;;;;;5068307;28;20446;-67
2021/08/20 04:05:50;;;;;;;12.90;5.07;;;;;;;;;;5068458;28;20410;-67
2021/08/20 04:08:30;;;;;;;8.50;4.57;;;;;;;;;;5068201;28;20390;-67
2021/08/20 04:11:28;;;;;;;13.07;4.57;;;;;;;;;;5150338;27;20138;-67
2021/08/20 04:14:27;;;;;;;13.82;4.90;;;;;;;;;;5088435;28;20390;-67
2021/08/20 04:17:05;;;;;;;8.15;4.32;;;;;;;;;;5068107;28;20391;-67
2021/08/20 04:19:45;;;;;;;12.95;5.00;;;;;;;;;;5068499;28;20386;-67
2021/08/20 04:22:23;;;;;;;16.17;4.40;;;;;;;;;;5068239;28;20391;-66
2021/08/20 04:25:01;;;;;;;15.60;4.75;;;;;;;;;;5068228;28;20398;-67
2021/08/20 04:28:01;;;;;;;10.55;4.30;;;;;;;;;;5106831;27;1312494;-67
2021/08/20 04:31:01;;;;;;;7.85;4.40;;;;;;;;;;5068274;28;20417;-66
2021/08/20 04:33:55;;;;;;;14.13;4.40;;;;;;;;;;5068366;28;20921;-66
2021/08/20 04:36:51;;;;;;;9.77;4.88;;;;;;;;;;5068131;28;20545;-67
2021/08/20 04:39:47;;;;;;;11.05;4.93;;;;;;;;;;5068386;28;20387;-66
2021/08/20 04:42:35;;;;;;;14.52;5.03;;;;;;;;;;5068323;28;20382;-67
2021/08/20 04:45:29;;;;;;;16.77;5.47;;;;;;;;;;5068288;28;20387;-67
2021/08/20 04:48:45;;;;;;;22.38;8.77;;;;;;;;;;5068392;28;20402;-67
2021/08/20 04:51:32;;;;;;;23.92;10.60;;;;;;;;;;5068197;28;20395;-67
2021/08/20 04:54:19;;;;;;;26.55;12.32;;;;;;;;;;5068296;28;20391;-67
2021/08/20 04:57:04;;;;;;;29.77;14.75;;;;;;;;;;5068212;28;20685;-67
2021/08/20 04:59:56;;;;;;;48.75;30.35;;;;;;;;;;5089075;27;20418;-67
2021/08/20 05:02:50;;;;;;;45.88;22.33;;;;;;;;;;5107082;27;20355;-67
2021/08/20 05:06:00;;;;;;;165.00;82.32;;;;;;;;;;5126698;27;20330;-67
2021/08/20 05:09:01;;;;;;;130.18;76.75;;;;;;;;;;5130365;27;20442;-67
2021/08/20 05:12:01;;;;;;;59.35;32.47;;;;;;;;;;5191791;27;20469;-67
2021/08/20 05:14:56;;;;;;;37.35;20.27;;;;;;;;;;5191736;27;20425;-67
2021/08/20 05:17:47;;;;;;;47.47;28.83;;;;;;;;;;5129325;27;20898;-67
2021/08/20 05:20:25;;;;;;;28.57;16.63;;;;;;;;;;4055290;27;30063426;-67
2021/08/20 05:23:01;;;;;;;19.88;9.80;;;;;;;;;;3944705;27;33204099;-67
2021/08/20 05:25:56;;;;;;;22.75;8.73;;;;;;;;;;5191561;27;20873;-67
2021/08/20 05:28:47;;;;;;;16.88;9.68;;;;;;;;;;5129842;27;20153;-67
2021/08/20 05:31:26;;;;;;;23.98;9.63;;;;;;;;;;5068701;28;20391;-67
2021/08/20 05:34:04;;;;;;;20.15;11.40;;;;;;;;;;5068377;28;20382;-67
2021/08/20 05:36:42;;;;;;;24.10;10.70;;;;;;;;;;5068001;28;20394;-67
2021/08/20 05:39:20;;;;;;;27.67;12.80;;;;;;;;;;5068229;28;20394;-67
2021/08/20 05:41:58;;;;;;;21.35;9.18;;;;;;;;;;5068291;28;20793;-67
2021/08/20 05:44:36;;;;;;;27.95;9.02;;;;;;;;;;5068146;28;20751;-67
2021/08/20 05:47:15;;;;;;;20.33;7.63;;;;;;;;;;5068214;28;20913;-67
2021/08/20 05:49:54;;;;;;;21.80;7.20;;;;;;;;;;5192094;27;20116;-67
2021/08/20 05:52:31;;;;;;;26.23;7.25;;;;;;;;;;5107417;27;1309697;-66
2021/08/20 05:55:13;;;;;;;22.83;7.00;;;;;;;;;;5068073;28;20389;-67
2021/08/20 05:57:51;;;;;;;21.30;6.50;;;;;;;;;;5068240;28;20416;-67
2021/08/20 06:00:29;;;;;;;23.98;6.93;;;;;;;;;;5068100;28;20387;-67
2021/08/20 06:03:20;;;;;;;24.27;6.55;;;;;;;;;;5068322;28;20418;-67
2021/08/20 06:05:58;;;;;;;19.58;6.40;;;;;;;;;;5068232;28;20394;-67
2021/08/20 06:08:38;;;;;;;15.10;6.43;;;;;;;;;;5068164;28;20386;-67
2021/08/20 06:11:16;;;;;;;21.27;6.75;;;;;;;;;;5068308;28;20398;-67
2021/08/20 06:13:54;;;;;;;16.13;6.85;;;;;;;;;;5068207;28;21079;-67
2021/08/20 06:16:33;;;;;;;10.65;6.10;;;;;;;;;;5108840;27;20775;-67
2021/08/20 06:19:11;;;;;;;15.77;7.13;;;;;;;;;;5068349;28;20936;-67
2021/08/20 06:21:49;;;;;;;19.73;7.47;;;;;;;;;;5068325;28;20932;-67
2021/08/20 06:24:27;;;;;;;16.80;7.25;;;;;;;;;;5068364;28;20754;-67
2021/08/20 06:27:05;;;;;;;22.98;8.82;;;;;;;;;;5068524;28;20386;-67
2021/08/20 06:29:44;;;;;;;17.90;7.68;;;;;;;;;;5068543;28;20390;-67
2021/08/20 06:32:22;;;;;;;26.05;8.38;;;;;;;;;;5068350;28;20383;-68
2021/08/20 06:35:00;;;;;;;21.42;7.95;;;;;;;;;;5068438;28;20387;-67
2021/08/20 06:37:38;;;;;;;29.33;7.53;;;;;;;;;;5068245;28;20386;-67
2021/08/20 06:40:16;;;;;;;40.55;9.23;;;;;;;;;;5068956;28;20402;-67
2021/08/20 06:42:55;;;;;;;33.45;8.63;;;;;;;;;;5068428;28;20398;-65
2021/08/20 06:45:33;;;;;;;35.25;8.65;;;;;;;;;;5069030;28;20386;-67
2021/08/20 06:48:11;;;;;;;26.27;8.25;;;;;;;;;;5068273;28;20390;-67
2021/08/20 06:50:53;;;;;;;25.98;8.52;;;;;;;;;;5108978;27;20391;-67
2021/08/20 06:53:31;;;;;;;28.13;8.55;;;;;;;;;;5108581;27;20380;-67
2021/08/20 06:56:09;;;;;;;14.02;7.80;;;;;;;;;;5068203;28;20387;-67
2021/08/20 06:58:47;;;;;;;23.55;8.25;;;;;;;;;;5068326;28;20402;-67
2021/08/20 07:01:26;;;;;;;37.25;9.13;;;;;;;;;;5067986;28;20394;-67
2021/08/20 07:04:04;;;;;;;21.13;8.18;;;;;;;;;;5068237;28;20747;-67
2021/08/20 07:06:42;;;;;;;26.77;8.60;;;;;;;;;;5068427;28;20395;-67
2021/08/20 07:09:20;;;;;;;20.17;8.40;;;;;;;;;;5068561;28;20785;-67
2021/08/20 07:11:58;;;;;;;27.40;8.93;;;;;;;;;;5068326;28;20398;-67
2021/08/20 07:14:37;;;;;;;22.30;8.82;;;;;;;;;;5108697;27;20798;-67
2021/08/20 07:17:15;;;;;;;26.52;8.68;;;;;;;;;;5129349;27;20357;-67
2021/08/20 07:19:53;;;;;;;20.67;8.25;;;;;;;;;;5068255;28;20395;-67
2021/08/20 07:22:31;;;;;;;14.82;8.20;;;;;;;;;;5068181;28;20391;-67
2021/08/20 07:25:09;;;;;;;22.23;8.52;;;;;;;;;;5068391;28;20397;-67
2021/08/20 07:27:47;;;;;;;16.90;7.97;;;;;;;;;;5108731;27;20388;-67
2021/08/20 07:30:25;;;;;;;23.60;8.57;;;;;;;;;;5068333;28;20406;-67
2021/08/20 07:33:04;;;;;;;19.00;8.45;;;;;;;;;;5068363;28;20387;-67
2021/08/20 07:35:42;;;;;;;19.35;7.97;;;;;;;;;;5108821;27;20891;-67
2021/08/20 07:38:20;;;;;;;35.47;8.85;;;;;;;;;;5108678;27;20388;-68
2021/08/20 07:40:58;;;;;;;23.20;8.73;;;;;;;;;;5067977;28;20393;-67
2021/08/20 07:43:36;;;;;;;18.15;7.70;;;;;;;;;;5068080;28;20415;-68
2021/08/20 07:46:15;;;;;;;19.92;8.10;;;;;;;;;;5067803;28;20784;-67
2021/08/20 07:48:53;;;;;;;12.27;7.80;;;;;;;;;;5068386;28;20918;-67
2021/08/20 07:51:31;;;;;;;14.63;7.32;;;;;;;;;;5068289;28;20386;-67
2021/08/20 07:54:09;;;;;;;20.40;7.50;;;;;;;;;;5108860;27;20392;-67
2021/08/20 07:56:48;;;;;;;20.27;8.10;;;;;;;;;;5088078;27;20381;-66
2021/08/20 07:59:28;;;;;;;20.35;7.75;;;;;;;;;;5088468;28;20414;-67
2021/08/20 08:02:06;;;;;;;14.63;7.72;;;;;;;;;;5068173;28;20391;-67
2021/08/20 08:04:42;;;;;;;16.33;7.50;;;;;;;;;;4635319;27;15054620;-67
2021/08/20 08:07:38;;;;;;;16.60;7.53;;;;;;;;;;5179840;27;20474;-67
2021/08/20 08:10:41;;;;;;;14.95;7.38;;;;;;;;;;5110344;27;20153;-68
2021/08/20 08:13:32;;;;;;;14.52;6.97;;;;;;;;;;5088780;27;20657;-68
2021/08/20 08:16:08;;;;;;;24.75;7.13;;;;;;;;;;4609026;27;15748964;-67
2021/08/20 08:19:09;;;;;;;27.33;7.28;;;;;;;;;;5130213;27;20914;-66
2021/08/20 08:22:00;;;;;;;15.70;6.35;;;;;;;;;;5119998;27;20407;-66
2021/08/20 08:24:58;;;;;;;17.23;6.10;;;;;;;;;;5103814;27;20324;-67
2021/08/20 08:27:55;;;;;;;16.40;6.30;;;;;;;;;;5129587;27;20326;-67
2021/08/20 08:30:48;;;;;;;13.50;5.45;;;;;;;;;;5088445;27;20418;-67
2021/08/20 08:33:44;;;;;;;19.38;5.60;;;;;;;;;;5191467;27;20394;-67
2021/08/20 08:36:36;;;;;;;17.25;6.43;;;;;;;;;;5129437;27;20368;-67
2021/08/20 08:39:27;;;;;;;15.63;5.47;;;;;;;;;;5089006;27;20446;-67
2021/08/20 08:42:19;;;;;;;18.00;5.55;;;;;;;;;;5129446;27;20360;-67
2021/08/20 08:45:11;;;;;;;16.17;6.13;;;;;;;;;;5130164;27;20415;-67
2021/08/20 08:47:49;;;;;;;12.77;5.00;;;;;;;;;;5129650;27;20151;-67
2021/08/20 08:50:26;;;;;;;9.90;4.60;;;;;;;;;;5068108;28;20386;-66
2021/08/20 08:53:05;;;;;;;10.48;4.72;;;;;;;;;;5088391;27;20392;-67
2021/08/20 08:55:47;;;;;;;23.75;5.30;;;;;;;;;;5068026;28;20391;-68
2021/08/20 08:58:24;;;;;;;16.95;5.35;;;;;;;;;;5068232;28;20390;-67
2021/08/20 09:01:22;;;;;;;15.85;5.55;;;;;;;;;;5068077;28;20394;-68
2021/08/20 09:04:08;;;;;;;10.25;4.97;;;;;;;;;;5150143;27;20138;-68
2021/08/20 09:06:56;;;;;;;12.90;5.47;;;;;;;;;;5068103;28;20400;-67
2021/08/20 09:09:35;;;;;;;14.82;5.60;;;;;;;;;;5068216;28;20387;-67
2021/08/20 09:12:26;;;;;;;13.73;5.65;;;;;;;;;;5108700;27;20732;-67
2021/08/20 09:15:05;;;;;;;10.05;4.20;;;;;;;;;;5068155;28;20398;-67
2021/08/20 09:17:50;;;;;;;14.10;4.25;;;;;;;;;;5129069;27;20436;-67
2021/08/20 09:20:27;;;;;;;14.40;5.45;;;;;;;;;;5068288;28;20391;-67
2021/08/20 09:23:26;;;;;;;14.57;4.95;;;;;;;;;;5068179;28;20813;-67
2021/08/20 09:26:04;;;;;;;13.32;4.75;;;;;;;;;;5024581;28;20885;-67
2021/08/20 09:28:42;;;;;;;8.70;4.55;;;;;;;;;;5108793;27;20335;-67
2021/08/20 09:31:23;;;;;;;11.23;4.53;;;;;;;;;;5129121;27;20330;-67
2021/08/20 09:34:03;;;;;;;9.43;5.30;;;;;;;;;;5108844;27;20909;-67
2021/08/20 09:36:40;;;;;;;13.77;4.63;;;;;;;;;;5067885;28;20382;-67
2021/08/20 09:39:25;;;;;;;11.90;5.68;;;;;;;;;;5068095;28;20387;-67
2021/08/20 09:42:14;;;;;;;10.85;5.18;;;;;;;;;;5149991;27;20408;-67
2021/08/20 09:45:11;;;;;;;12.48;5.05;;;;;;;;;;5068031;28;20387;-67
2021/08/20 09:47:50;;;;;;;9.43;4.50;;;;;;;;;;5024662;28;20539;-67
2021/08/20 09:50:55;;;;;;;7.75;4.38;;;;;;;;;;5068238;28;20671;-67
2021/08/20 09:53:32;;;;;;;8.98;5.28;;;;;;;;;;5067860;28;20440;-67
2021/08/20 09:56:10;;;;;;;12.45;4.90;;;;;;;;;;5067800;28;20378;-65
2021/08/20 09:58:49;;;;;;;8.52;4.55;;;;;;;;;;5067865;28;20398;-67
2021/08/20 10:01:28;;;;;;;8.18;4.65;;;;;;;;;;5088223;27;20417;-67
2021/08/20 10:04:08;;;;;;;9.57;5.30;;;;;;;;;;5068274;28;20413;-67
2021/08/20 10:06:50;;;;;;;9.40;5.18;;;;;;;;;;5067693;28;20390;-67
2021/08/20 10:09:29;;;;;;;11.15;5.63;;;;;;;;;;5068323;28;20386;-67
2021/08/20 10:12:08;;;;;;;9.93;5.38;;;;;;;;;;5068220;28;20387;-67
2021/08/20 10:14:46;;;;;;;12.27;5.30;;;;;;;;;;5068241;28;20398;-67
2021/08/20 10:17:51;;;;;;;12.88;5.97;;;;;;;;;;5067182;28;20040;-67
2021/08/20 10:20:55;;;;;;;10.52;4.85;;;;;;;;;;5067742;28;20136;-67
2021/08/20 10:24:00;;;;;;;13.73;5.28;;;;;;;;;;5067907;28;20040;-67
2021/08/20 10:27:05;;;;;;;18.08;6.10;;;;;;;;;;5067892;28;20037;-67
2021/08/20 10:30:10;;;;;;;14.73;5.85;;;;;;;;;;5068001;28;20041;-67
2021/08/20 10:33:14;;;;;;;8.00;4.75;;;;;;;;;;5067955;28;20049;-67
2021/08/20 10:36:37;;;;;;;11.48;5.38;;;;;;;;;;5067293;28;20037;-67
2021/08/20 10:39:46;;;;;;;15.13;5.85;;;;;;;;;;5067342;28;20036;-67
2021/08/20 10:42:50;;;;;;;13.38;5.78;;;;;;;;;;5067690;28;20041;-67
2021/08/20 10:45:37;;;;;;;16.23;6.25;;;;;;;;;;5129039;27;20341;-66
2021/08/20 10:48:18;;;;;;;11.38;6.35;;;;;;;;;;5129308;27;20357;-67
2021/08/20 10:50:57;;;;;;;9.90;6.80;;;;;;;;;;5089028;27;20385;-67
2021/08/20 10:53:47;;;;;;;10.75;6.57;;;;;;;;;;5088570;27;20936;-67
2021/08/20 10:56:33;;;;;;;14.13;7.00;;;;;;;;;;5068317;28;20391;-67
2021/08/20 10:59:30;;;;;;;11.20;6.63;;;;;;;;;;5108744;27;20391;-66
2021/08/20 11:02:24;;;;;;;13.77;7.47;;;;;;;;;;5129298;27;20132;-67
2021/08/20 11:05:09;;;;;;;15.90;7.43;;;;;;;;;;5068231;28;20401;-67
2021/08/20 11:07:47;;;;;;;18.65;7.18;;;;;;;;;;5068298;28;20395;-66
2021/08/20 11:10:27;;;;;;;13.88;7.70;;;;;;;;;;5068476;28;20395;-68
2021/08/20 11:13:11;;;;;;;19.83;8.63;;;;;;;;;;5068318;28;20417;-67
2021/08/20 11:15:49;;;;;;;21.30;8.80;;;;;;;;;;5088605;27;20393;-67
2021/08/20 11:18:47;;;;;;;14.07;8.32;;;;;;;;;;5068756;28;20394;-68
2021/08/20 11:21:42;;;;;;;17.73;9.30;;;;;;;;;;5108967;27;20533;-67
2021/08/20 11:24:21;;;;;;;15.57;9.02;;;;;;;;;;5068239;28;20398;-66
2021/08/20 11:27:11;;;;;;;23.67;10.32;;;;;;;;;;5068159;28;20390;-67
2021/08/20 11:29:48;;;;;;;22.73;9.77;;;;;;;;;;5068587;28;20386;-66
2021/08/20 11:33:13;;;;;;;14.90;8.85;;;;;;;;;;5068074;28;20041;-67
2021/08/20 11:36:19;;;;;;;13.60;8.63;;;;;;;;;;5068246;28;20041;-67
2021/08/20 11:39:23;;;;;;;19.13;12.05;;;;;;;;;;5068136;28;20040;-67
2021/08/20 11:42:27;;;;;;;19.58;10.50;;;;;;;;;;5068207;28;20048;-67
2021/08/20 11:45:32;;;;;;;22.50;12.00;;;;;;;;;;5067944;28;20041;-67
2021/08/20 11:48:50;;;;;;;20.85;9.98;;;;;;;;;;5067692;28;20052;-67
2021/08/20 11:52:02;;;;;;;18.15;9.30;;;;;;;;;;5067758;28;20041;-67
2021/08/20 11:55:14;;;;;;;18.80;9.18;;;;;;;;;;5067793;28;20373;-67
2021/08/20 11:58:25;;;;;;;16.67;8.45;;;;;;;;;;5067642;28;20041;-67
2021/08/20 12:01:31;;;;;;;17.85;8.40;;;;;;;;;;5067623;28;20041;-67
2021/08/20 12:04:37;;;;;;;18.85;8.25;;;;;;;;;;5067394;28;20040;-67
2021/08/20 12:08:12;;;;;;;16.75;8.48;;;;;;;;;;5067566;28;20496;-68
2021/08/20 12:11:21;;;;;;;21.20;9.35;;;;;;;;;;5067632;28;20476;-69
2021/08/20 12:14:29;;;;;;;22.17;9.40;;;;;;;;;;5067261;28;20037;-69
2021/08/20 12:17:34;;;;;;;14.23;8.73;;;;;;;;;;5067666;28;20481;-68
2021/08/20 12:20:41;;;;;;;11.90;8.10;;;;;;;;;;5067433;28;20476;-69
2021/08/20 12:24:03;;;;;;;18.05;7.57;;;;;;;;;;5067430;28;20045;-69
2021/08/20 12:27:16;;;;;;;23.65;8.30;;;;;;;;;;5067026;28;20037;-68
2021/08/20 12:30:25;;;;;;;14.02;7.47;;;;;;;;;;5066928;28;20048;-69
2021/08/20 12:33:29;;;;;;;16.58;8.10;;;;;;;;;;5067070;28;20033;-66
2021/08/20 12:36:34;;;;;;;13.63;7.47;;;;;;;;;;5067085;28;20362;-67
2021/08/20 12:39:39;;;;;;;17.52;7.25;;;;;;;;;;5062147;28;20041;-68
2021/08/20 12:42:46;;;;;;;15.25;7.63;;;;;;;;;;5053485;28;20513;-68
2021/08/20 12:46:10;;;;;;;16.00;8.65;;;;;;;;;;5053529;28;20041;-68
2021/08/20 12:49:17;;;;;;;19.35;8.85;;;;;;;;;;5053433;28;20045;-68
2021/08/20 12:52:29;;;;;;;13.52;7.65;;;;;;;;;;5053350;28;20037;-68
2021/08/20 12:55:34;;;;;;;14.25;7.30;;;;;;;;;;5053276;28;20033;-69
2021/08/20 12:58:39;;;;;;;18.95;7.70;;;;;;;;;;5053354;28;20041;-68
2021/08/20 13:01:43;;;;;;;15.55;7.20;;;;;;;;;;5053182;28;20635;-68
2021/08/20 13:04:47;;;;;;;23.17;7.47;;;;;;;;;;5053094;28;20055;-68
2021/08/20 13:07:52;;;;;;;16.83;6.88;;;;;;;;;;5053393;28;20583;-68
2021/08/20 13:10:57;;;;;;;17.75;7.95;;;;;;;;;;5053247;28;20041;-68
2021/08/20 13:14:02;;;;;;;18.45;7.53;;;;;;;;;;5053019;28;20044;-66
2021/08/20 13:17:06;;;;;;;17.45;7.60;;;;;;;;;;5051934;28;20489;-67
2021/08/20 13:20:12;;;;;;;20.85;7.32;;;;;;;;;;5052979;28;20041;-66
2021/08/20 13:23:17;;;;;;;18.20;6.72;;;;;;;;;;5052832;28;20033;-67
2021/08/20 13:26:21;;;;;;;17.95;7.18;;;;;;;;;;5052646;28;20484;-66
2021/08/20 13:29:26;;;;;;;20.85;7.70;;;;;;;;;;5052834;28;20045;-66
2021/08/20 13:32:30;;;;;;;24.55;8.43;;;;;;;;;;5052729;28;20381;-66
2021/08/20 13:35:35;;;;;;;21.73;6.60;;;;;;;;;;5052657;28;20508;-66
2021/08/20 13:38:39;;;;;;;21.17;7.03;;;;;;;;;;5052754;28;20037;-65
2021/08/20 13:41:43;;;;;;;17.73;7.07;;;;;;;;;;5052680;28;20071;-67
2021/08/20 13:44:47;;;;;;;31.13;7.13;;;;;;;;;;5052794;28;20041;-67
2021/08/20 13:47:52;;;;;;;25.25;6.95;;;;;;;;;;5051409;28;20477;-67
2021/08/20 13:50:57;;;;;;;18.40;6.85;;;;;;;;;;5051731;28;20041;-66
2021/08/20 13:54:01;;;;;;;20.05;6.68;;;;;;;;;;5052266;28;20385;-66
2021/08/20 13:57:06;;;;;;;12.88;6.18;;;;;;;;;;5052287;28;20037;-66
2021/08/20 14:00:10;;;;;;;15.70;6.20;;;;;;;;;;5052100;28;20045;-66
2021/08/20 14:03:14;;;;;;;18.75;7.25;;;;;;;;;;5052246;28;20037;-66
2021/08/20 14:06:19;;;;;;;13.38;5.30;;;;;;;;;;5051975;28;20041;-66
2021/08/20 14:09:23;;;;;;;15.70;5.43;;;;;;;;;;5052070;28;20045;-67
2021/08/20 14:12:28;;;;;;;12.77;5.18;;;;;;;;;;5052089;28;20032;-66
2021/08/20 14:15:32;;;;;;;9.98;5.10;;;;;;;;;;5051357;28;20045;-66
2021/08/20 14:18:36;;;;;;;13.40;5.47;;;;;;;;;;5051618;28;20033;-66
2021/08/20 14:21:41;;;;;;;12.77;5.85;;;;;;;;;;5051485;28;20044;-66
2021/08/20 14:24:45;;;;;;;14.40;5.80;;;;;;;;;;5050933;28;20033;-66
2021/08/20 14:27:50;;;;;;;13.05;5.47;;;;;;;;;;5051179;28;20045;-66
2021/08/20 14:30:54;;;;;;;13.13;5.90;;;;;;;;;;5051417;28;20373;-66
2021/08/20 14:33:58;;;;;;;13.30;4.88;;;;;;;;;;5051462;28;20117;-66
2021/08/20 14:37:03;;;;;;;13.10;4.68;;;;;;;;;;5051079;28;20041;-67
2021/08/20 14:40:07;;;;;;;13.13;5.43;;;;;;;;;;5050229;28;20033;-66
2021/08/20 14:43:11;;;;;;;11.38;5.57;;;;;;;;;;5051193;28;20395;-66
2021/08/20 14:46:16;;;;;;;13.52;5.80;;;;;;;;;;5050970;28;20037;-66
2021/08/20 14:49:39;;;;;;;9.90;5.55;;;;;;;;;;5051152;28;20041;-67
2021/08/20 14:52:45;;;;;;;12.93;6.47;;;;;;;;;;5051212;28;20469;-66
2021/08/20 14:55:49;;;;;;;22.33;7.25;;;;;;;;;;5051120;28;20033;-67
2021/08/20 14:58:53;;;;;;;18.95;6.63;;;;;;;;;;5051388;28;20045;-67
2021/08/20 15:01:59;;;;;;;21.40;7.03;;;;;;;;;;5051871;28;20362;-67
2021/08/20 15:05:03;;;;;;;18.73;6.90;;;;;;;;;;5049964;28;20037;-66
2021/08/20 15:08:08;;;;;;;15.48;7.38;;;;;;;;;;5050771;28;20037;-66
2021/08/20 15:11:12;;;;;;;21.63;6.72;;;;;;;;;;5050866;28;20480;-67
2021/08/20 15:14:18;;;;;;;22.65;6.97;;;;;;;;;;5050797;28;20037;-66
2021/08/20 15:17:22;;;;;;;15.50;6.53;;;;;;;;;;5050590;28;20041;-67
2021/08/20 15:20:30;;;;;;;18.05;6.50;;;;;;;;;;5050671;28;20037;-67
2021/08/20 15:23:34;;;;;;;26.65;6.13;;;;;;;;;;5050736;28;20033;-67
2021/08/20 15:26:39;;;;;;;22.02;6.55;;;;;;;;;;5050572;28;20488;-67
2021/08/20 15:29:43;;;;;;;32.03;9.00;;;;;;;;;;5050241;28;20389;-67
2021/08/20 15:32:48;;;;;;;125.45;16.08;;;;;;;;;;5050509;28;20037;-67
2021/08/20 15:35:55;;;;;;;50.58;9.38;;;;;;;;;;5050390;28;20056;-66
2021/08/20 15:38:59;;;;;;;23.27;6.78;;;;;;;;;;5050377;28;20378;-67
2021/08/20 15:42:06;;;;;;;45.33;7.97;;;;;;;;;;5050092;28;20041;-66
2021/08/20 15:45:11;;;;;;;117.97;14.75;;;;;;;;;;5050140;28;20464;-67
2021/08/20 15:48:15;;;;;;;40.33;7.65;;;;;;;;;;5050019;28;20048;-67
2021/08/20 15:51:19;;;;;;;18.23;7.40;;;;;;;;;;5050358;28;20044;-67
2021/08/20 15:54:23;;;;;;;23.30;6.50;;;;;;;;;;5050405;28;20045;-66
2021/08/20 15:57:28;;;;;;;15.73;6.72;;;;;;;;;;5049996;28;20037;-66
2021/08/20 16:00:32;;;;;;;18.05;7.60;;;;;;;;;;5050160;28;20037;-66
2021/08/20 16:03:36;;;;;;;20.40;7.85;;;;;;;;;;5050068;28;20370;-67
2021/08/20 16:06:41;;;;;;;14.13;7.30;;;;;;;;;;5050165;28;20045;-66
2021/08/20 16:09:45;;;;;;;19.23;7.80;;;;;;;;;;5050083;28;20382;-66
2021/08/20 16:12:50;;;;;;;24.65;7.53;;;;;;;;;;5049573;28;20037;-66
2021/08/20 16:15:54;;;;;;;27.55;6.97;;;;;;;;;;5052276;28;20033;-67
2021/08/20 16:18:58;;;;;;;19.30;5.25;;;;;;;;;;5053102;28;20033;-66
2021/08/20 16:22:03;;;;;;;17.42;5.75;;;;;;;;;;5054186;28;20469;-66
2021/08/20 16:25:10;;;;;;;16.02;5.25;;;;;;;;;;5053882;28;20053;-66
2021/08/20 16:28:15;;;;;;;13.15;5.43;;;;;;;;;;5053624;28;20045;-66
2021/08/20 16:31:19;;;;;;;13.60;5.05;;;;;;;;;;5053788;28;20056;-66
2021/08/20 16:34:24;;;;;;;11.80;4.82;;;;;;;;;;5053725;28;20041;-66
2021/08/20 16:37:28;;;;;;;15.90;5.70;;;;;;;;;;5053600;28;20485;-66
2021/08/20 16:40:32;;;;;;;22.13;5.60;;;;;;;;;;5053449;28;20041;-66
2021/08/20 16:43:36;;;;;;;14.95;4.13;;;;;;;;;;5053529;28;20405;-66
2021/08/20 16:46:41;;;;;;;17.98;4.22;;;;;;;;;;5052927;28;20041;-66
2021/08/20 16:49:45;;;;;;;10.45;3.90;;;;;;;;;;5053002;28;20048;-66
2021/08/20 16:52:49;;;;;;;29.10;5.18;;;;;;;;;;5053142;28;20033;-67
2021/08/20 16:55:54;;;;;;;83.07;8.75;;;;;;;;;;5053357;28;20033;-66
2021/08/20 16:58:58;;;;;;;33.85;4.00;;;;;;;;;;5052669;28;20029;-66
2021/08/20 17:02:03;;;;;;;19.17;3.60;;;;;;;;;;5053049;28;20037;-66
2021/08/20 17:05:07;;;;;;;11.35;3.28;;;;;;;;;;5053165;28;20037;-67
2021/08/20 17:08:11;;;;;;;9.60;2.90;;;;;;;;;;5052833;28;20033;-66
2021/08/20 17:11:15;;;;;;;10.32;4.25;;;;;;;;;;5051881;28;20045;-66
2021/08/20 17:14:20;;;;;;;10.50;3.00;;;;;;;;;;5052862;28;20036;-66